Time;durP1;ratioP1;P1;durP2;ratioP2;P2;SDS_P1;SDS_P2;PMS_P1;PMS_P2;Temp;Humidity;BMP_temperature;BMP_pressure;BME280_temperature;BME280_humidity;BME280_pressure;Samples;Min_cycle;Max_cycle;Signal;HPM_P1;HPM_P2
2021/12/20 00:01:38;;;;;;;29.80;5.90;;;6.90;99.80;;;;;;5128513;27;20115;-72
2021/12/20 00:04:04;;;;;;;33.65;6.35;;;6.90;99.80;;;;;;5130089;27;20050;-72
2021/12/20 00:06:30;;;;;;;29.45;6.40;;;6.90;99.80;;;;;;5120552;27;20047;-71
2021/12/20 00:08:56;;;;;;;26.98;5.55;;;6.90;99.70;;;;;;5127710;27;20062;-72
2021/12/20 00:11:21;;;;;;;38.92;6.60;;;6.90;99.80;;;;;;5120439;27;20074;-72
2021/12/20 00:13:47;;;;;;;33.85;7.07;;;6.80;99.70;;;;;;5113288;27;20135;-71
2021/12/20 00:16:13;;;;;;;32.38;6.20;;;6.80;99.90;;;;;;5130023;27;20047;-72
2021/12/20 00:18:39;;;;;;;32.35;6.70;;;6.80;99.90;;;;;;5120171;27;20039;-72
2021/12/20 00:21:04;;;;;;;36.17;6.93;;;6.70;99.90;;;;;;5122997;27;20088;-72
2021/12/20 00:23:30;;;;;;;28.42;5.00;;;6.70;99.90;;;;;;5129560;27;20043;-72
2021/12/20 00:25:56;;;;;;;28.27;6.53;;;6.60;99.90;;;;;;5122335;27;20401;-72
2021/12/20 00:28:22;;;;;;;34.17;5.75;;;6.50;99.90;;;;;;5128341;27;20054;-72
2021/12/20 00:30:48;;;;;;;36.15;6.32;;;6.50;99.90;;;;;;5117020;27;20518;-72
2021/12/20 00:33:14;;;;;;;35.75;6.50;;;6.40;99.90;;;;;;5128572;27;20046;-72
2021/12/20 00:35:40;;;;;;;35.55;6.75;;;6.40;99.90;;;;;;5118563;27;20434;-72
2021/12/20 00:40:51;;;;;;;30.65;6.10;;;6.20;99.90;;;;;;5122848;27;20039;-72
2021/12/20 00:43:17;;;;;;;29.80;6.20;;;6.20;99.90;;;;;;5127923;27;20397;-72
2021/12/20 00:45:43;;;;;;;27.85;6.43;;;6.10;99.90;;;;;;5119126;27;20039;-72
2021/12/20 00:48:08;;;;;;;33.35;5.95;;;6.10;99.90;;;;;;5109984;27;20050;-72
2021/12/20 00:50:36;;;;;;;37.40;6.45;;;6.10;99.90;;;;;;5124958;27;20085;-72
2021/12/20 00:53:01;;;;;;;31.98;6.07;;;6.00;99.90;;;;;;5126935;27;20047;-72
2021/12/20 00:55:28;;;;;;;22.00;4.82;;;5.90;99.90;;;;;;5110589;27;20036;-72
2021/12/20 00:57:57;;;;;;;33.80;6.20;;;5.90;99.90;;;;;;5118327;27;20043;-72
2021/12/20 01:00:38;;;;;;;31.85;6.50;;;5.80;99.90;;;;;;5126704;27;20334;-72
2021/12/20 01:03:05;;;;;;;24.58;5.97;;;5.70;99.90;;;;;;5125231;27;20474;-72
2021/12/20 01:05:32;;;;;;;29.05;6.28;;;5.70;99.90;;;;;;5111232;27;20551;-72
2021/12/20 01:08:01;;;;;;;29.75;7.13;;;5.60;99.90;;;;;;5120262;27;20039;-72
2021/12/20 01:10:29;;;;;;;34.72;6.28;;;5.50;99.90;;;;;;5117371;27;20036;-72
2021/12/20 01:12:58;;;;;;;31.30;6.03;;;5.50;99.90;;;;;;5126552;27;20042;-72
2021/12/20 01:15:47;;;;;;;30.92;6.30;;;5.40;99.90;;;;;;5126012;27;20050;-72
2021/12/20 01:18:14;;;;;;;27.55;6.32;;;5.40;99.90;;;;;;5121486;27;20122;-71
2021/12/20 01:20:41;;;;;;;31.40;6.72;;;5.30;99.90;;;;;;5107726;27;20043;-72
2021/12/20 01:23:07;;;;;;;34.33;6.78;;;5.40;99.90;;;;;;5117691;27;20047;-72
2021/12/20 01:25:33;;;;;;;27.67;5.75;;;5.30;99.90;;;;;;5120152;27;20092;-72
2021/12/20 01:27:59;;;;;;;32.85;6.60;;;5.30;99.90;;;;;;5128712;27;20482;-72
2021/12/20 01:30:26;;;;;;;32.40;6.45;;;5.30;99.90;;;;;;5127107;27;20096;-72
2021/12/20 01:32:52;;;;;;;31.15;6.57;;;5.30;99.90;;;;;;5112995;27;20150;-72
2021/12/20 01:35:19;;;;;;;32.28;7.18;;;5.30;99.90;;;;;;5118158;27;20130;-72
2021/12/20 01:37:45;;;;;;;26.77;5.93;;;5.30;99.90;;;;;;5127239;27;20548;-72
2021/12/20 01:40:13;;;;;;;26.90;5.82;;;5.30;99.90;;;;;;5111074;27;20035;-72
2021/12/20 01:42:39;;;;;;;33.63;6.80;;;5.30;99.90;;;;;;5112586;28;20494;-72
2021/12/20 01:45:11;;;;;;;36.40;6.78;;;5.30;99.90;;;;;;5121404;27;20054;-72
2021/12/20 01:47:41;;;;;;;25.55;5.85;;;5.40;99.90;;;;;;5126157;27;20043;-72
2021/12/20 01:50:18;;;;;;;28.15;5.90;;;5.40;99.90;;;;;;5125225;27;20711;-72
2021/12/20 01:52:44;;;;;;;38.80;5.67;;;5.30;99.90;;;;;;5126665;27;20451;-72
2021/12/20 01:55:21;;;;;;;29.02;5.68;;;5.20;99.90;;;;;;5121052;27;20046;-72
2021/12/20 01:57:49;;;;;;;27.65;5.65;;;5.20;99.90;;;;;;5126963;27;20134;-72
2021/12/20 02:00:24;;;;;;;31.35;5.50;;;5.10;99.90;;;;;;5124812;27;20041;-72
2021/12/20 02:03:10;;;;;;;26.27;5.85;;;5.10;99.90;;;;;;5114096;27;20040;-72
2021/12/20 02:08:26;;;;;;;31.25;6.00;;;5.00;99.90;;;;;;5125760;27;20300;-72
2021/12/20 02:10:55;;;;;;;24.92;6.13;;;4.90;99.90;;;;;;5116328;27;20050;-72
2021/12/20 02:13:24;;;;;;;28.23;5.82;;;4.80;99.90;;;;;;5120545;27;20039;-72
2021/12/20 02:15:50;;;;;;;22.63;4.22;;;4.80;99.90;;;;;;5126252;27;20625;-72
2021/12/20 02:18:16;;;;;;;23.42;4.80;;;4.80;99.90;;;;;;5128142;27;20130;-72
2021/12/20 02:20:42;;;;;;;22.90;5.28;;;4.70;99.90;;;;;;5115825;27;20119;-72
2021/12/20 02:23:08;;;;;;;22.45;5.53;;;4.60;99.90;;;;;;5125572;27;20043;-72
2021/12/20 02:25:35;;;;;;;25.67;5.20;;;4.50;99.90;;;;;;5124749;27;20477;-72
2021/12/20 02:28:20;;;;;;;20.45;4.70;;;4.40;99.90;;;;;;5119314;27;20047;-72
2021/12/20 02:37:00;;;;;;;24.65;5.18;;;4.40;99.90;;;;;;5127608;27;20067;-72
2021/12/20 02:39:11;;;;;;;24.88;4.85;;;4.20;99.90;;;;;;5127361;27;20480;-72
2021/12/20 02:41:37;;;;;;;28.38;5.18;;;4.20;99.90;;;;;;5120057;27;20089;-71
2021/12/20 02:44:05;;;;;;;21.08;5.50;;;4.10;99.90;;;;;;5126409;27;20047;-72
2021/12/20 02:49:08;;;;;;;22.40;4.80;;;4.00;99.90;;;;;;5114363;27;20059;-72
2021/12/20 02:51:35;;;;;;;26.13;5.80;;;4.00;99.90;;;;;;5111087;27;20043;-72
2021/12/20 02:54:03;;;;;;;23.92;5.50;;;3.90;99.90;;;;;;5122082;27;20103;-72
2021/12/20 02:56:29;;;;;;;22.98;5.15;;;3.90;99.90;;;;;;5131033;27;20501;-72
2021/12/20 02:58:55;;;;;;;26.10;5.88;;;3.90;99.90;;;;;;5121622;27;20043;-72
2021/12/20 03:01:23;;;;;;;23.15;4.45;;;3.90;99.90;;;;;;5129822;27;20039;-72
2021/12/20 03:03:50;;;;;;;;;;;3.80;99.90;;;;;;5128297;27;20453;-72
2021/12/20 03:06:24;;;;;;;27.00;4.85;;;3.80;99.90;;;;;;5115127;27;19920;-71
2021/12/20 03:08:52;;;;;;;24.25;5.18;;;3.80;99.90;;;;;;5121168;27;20047;-72
2021/12/20 03:11:18;;;;;;;26.05;5.57;;;3.80;99.90;;;;;;5129144;27;20039;-71
2021/12/20 03:13:48;;;;;;;28.37;5.40;;;3.80;99.90;;;;;;5117655;27;20039;-72
2021/12/20 03:16:13;;;;;;;23.77;4.82;;;3.80;99.90;;;;;;5142795;27;20058;-72
2021/12/20 03:18:39;;;;;;;23.77;5.00;;;3.80;99.90;;;;;;5112620;27;20920;-72
2021/12/20 03:21:05;;;;;;;24.58;4.80;;;3.70;99.90;;;;;;5130043;27;20050;-72
2021/12/20 03:23:30;;;;;;;23.08;5.38;;;3.70;99.90;;;;;;5124709;27;20051;-72
2021/12/20 03:25:56;;;;;;;18.90;4.80;;;3.70;99.90;;;;;;5130291;27;20043;-72
2021/12/20 03:28:22;;;;;;;20.48;4.82;;;3.60;99.90;;;;;;5121968;27;20057;-72
2021/12/20 03:30:48;;;;;;;21.65;4.45;;;3.60;99.90;;;;;;5128251;27;20043;-72
2021/12/20 03:33:13;;;;;;;24.42;4.35;;;3.50;99.90;;;;;;5126605;27;20389;-72
2021/12/20 03:35:39;;;;;;;19.50;4.47;;;3.50;99.90;;;;;;5126241;27;20066;-72
2021/12/20 03:38:05;;;;;;;19.95;4.22;;;3.50;99.90;;;;;;5113097;27;20477;-72
2021/12/20 03:40:32;;;;;;;23.45;4.88;;;3.50;99.90;;;;;;5124693;27;20043;-72
2021/12/20 03:42:58;;;;;;;19.02;5.07;;;3.50;99.90;;;;;;5123996;27;20067;-71
2021/12/20 03:45:24;;;;;;;27.80;5.05;;;3.50;99.90;;;;;;5125214;27;20073;-72
2021/12/20 03:47:50;;;;;;;24.27;5.22;;;3.50;99.90;;;;;;5126277;27;20027;-72
2021/12/20 03:50:16;;;;;;;27.83;5.00;;;3.50;99.90;;;;;;5128732;27;20495;-72
2021/12/20 03:52:42;;;;;;;20.95;5.55;;;3.50;99.90;;;;;;5127039;27;20568;-72
2021/12/20 03:55:11;;;;;;;20.83;6.18;;;3.50;99.90;;;;;;5114505;27;20035;-71
2021/12/20 03:57:37;;;;;;;23.13;5.55;;;3.50;99.90;;;;;;5126080;27;20047;-71
2021/12/20 04:00:06;;;;;;;23.77;6.22;;;3.40;99.90;;;;;;5128511;27;20470;-72
2021/12/20 04:02:40;;;;;;;18.77;6.03;;;3.30;99.90;;;;;;5127689;27;20059;-72
2021/12/20 04:05:06;;;;;;;18.92;5.40;;;3.20;99.90;;;;;;5126861;27;20074;-72
2021/12/20 04:07:32;;;;;;;22.67;6.38;;;3.20;99.90;;;;;;5128763;27;20134;-71
2021/12/20 04:09:58;;;;;;;23.75;7.72;;;3.10;99.90;;;;;;5125619;27;20122;-72
2021/12/20 04:12:23;;;;;;;23.40;7.90;;;3.10;99.90;;;;;;5121278;27;20453;-72
2021/12/20 04:14:49;;;;;;;22.70;7.63;;;3.10;99.90;;;;;;5120135;27;20461;-72
2021/12/20 04:17:15;;;;;;;25.60;7.72;;;3.00;99.90;;;;;;5122626;27;20035;-72
2021/12/20 04:19:40;;;;;;;24.90;8.18;;;3.00;99.90;;;;;;5128579;27;20490;-72
2021/12/20 04:22:06;;;;;;;25.85;8.15;;;2.90;99.90;;;;;;5128045;27;20051;-72
2021/12/20 04:24:32;;;;;;;21.35;7.43;;;2.90;99.90;;;;;;5120797;27;20087;-72
2021/12/20 04:26:57;;;;;;;25.40;7.32;;;2.90;99.90;;;;;;5118133;27;20047;-72
2021/12/20 04:29:23;;;;;;;18.55;7.25;;;2.90;99.90;;;;;;5125814;27;20609;-72
2021/12/20 04:31:49;;;;;;;33.05;8.70;;;2.80;99.90;;;;;;5127042;27;20039;-71
2021/12/20 04:34:16;;;;;;;29.05;7.80;;;2.80;99.90;;;;;;5122754;27;20043;-72
2021/12/20 04:36:42;;;;;;;21.35;6.60;;;2.80;99.90;;;;;;5127520;27;20086;-72
2021/12/20 04:39:12;;;;;;;23.52;7.93;;;2.70;99.90;;;;;;5120076;27;20681;-72
2021/12/20 04:41:38;;;;;;;16.83;6.63;;;2.70;99.90;;;;;;5114236;27;20414;-71
2021/12/20 04:44:04;;;;;;;13.50;6.10;;;2.70;99.90;;;;;;5114980;27;20043;-72
2021/12/20 04:46:30;;;;;;;19.40;6.35;;;2.70;99.90;;;;;;5115979;27;20035;-71
2021/12/20 04:48:55;;;;;;;22.60;6.72;;;2.60;99.90;;;;;;5136438;27;20075;-72
2021/12/20 04:51:21;;;;;;;20.08;5.75;;;2.60;99.90;;;;;;5126542;27;20122;-71
2021/12/20 04:53:47;;;;;;;16.98;5.75;;;2.50;99.90;;;;;;5119577;27;20542;-72
2021/12/20 04:56:12;;;;;;;17.27;5.97;;;2.50;99.90;;;;;;5127548;27;20101;-72
2021/12/20 04:58:38;;;;;;;17.85;5.15;;;2.50;99.90;;;;;;5123725;27;20039;-71
2021/12/20 05:01:04;;;;;;;17.52;6.28;;;2.50;99.90;;;;;;5127139;27;20031;-72
2021/12/20 05:03:30;;;;;;;17.02;5.18;;;2.40;99.90;;;;;;5117362;27;20049;-72
2021/12/20 05:05:55;;;;;;;21.48;6.05;;;2.40;99.90;;;;;;5118077;27;20132;-71
2021/12/20 05:08:21;;;;;;;23.25;5.97;;;2.40;99.90;;;;;;5124921;27;20464;-72
2021/12/20 05:10:46;;;;;;;23.10;5.03;;;2.40;99.90;;;;;;5118026;27;20395;-72
2021/12/20 05:13:14;;;;;;;18.13;4.93;;;2.40;99.90;;;;;;5112637;27;20504;-72
2021/12/20 05:15:41;;;;;;;19.20;4.50;;;2.40;99.90;;;;;;5117854;27;20134;-72
2021/12/20 05:18:08;;;;;;;24.65;5.90;;;2.40;99.90;;;;;;5117495;27;20077;-72
2021/12/20 05:20:34;;;;;;;19.80;5.47;;;2.30;99.90;;;;;;5125359;27;20051;-72
2021/12/20 05:23:01;;;;;;;19.42;4.70;;;2.30;99.90;;;;;;5111926;27;20075;-72
2021/12/20 05:25:27;;;;;;;18.27;4.60;;;2.30;99.90;;;;;;5111187;27;20043;-72
2021/12/20 05:27:53;;;;;;;16.80;4.07;;;2.40;99.90;;;;;;5124580;27;20050;-72
2021/12/20 05:30:19;;;;;;;18.50;4.30;;;2.40;99.90;;;;;;5122964;27;20118;-72
2021/12/20 05:32:45;;;;;;;17.80;5.15;;;2.40;99.90;;;;;;5126566;27;20043;-72
2021/12/20 05:35:13;;;;;;;20.02;5.43;;;2.30;99.90;;;;;;5117023;27;20031;-72
2021/12/20 05:37:39;;;;;;;21.95;4.10;;;2.40;99.90;;;;;;5126097;27;20535;-72
2021/12/20 05:40:07;;;;;;;21.17;4.70;;;2.40;99.90;;;;;;5116991;27;20692;-71
2021/12/20 05:42:32;;;;;;;;;;;2.40;99.90;;;;;;5125803;27;20085;-72
2021/12/20 05:44:58;;;;;;;16.77;3.72;;;2.40;99.90;;;;;;5120088;27;19954;-71
2021/12/20 05:47:24;;;;;;;23.02;4.50;;;2.30;99.90;;;;;;5127166;27;20397;-71
2021/12/20 05:49:50;;;;;;;22.52;4.57;;;2.30;99.90;;;;;;5119556;27;20078;-72
2021/12/20 05:52:17;;;;;;;18.15;4.10;;;2.20;99.90;;;;;;5126187;27;20043;-71
2021/12/20 05:54:42;;;;;;;24.40;4.95;;;2.20;99.90;;;;;;5120037;27;20645;-71
2021/12/20 05:57:08;;;;;;;20.95;4.35;;;2.20;99.90;;;;;;5127387;27;20051;-72
2021/12/20 05:59:34;;;;;;;20.02;3.70;;;2.20;99.90;;;;;;5132051;27;20081;-72
2021/12/20 06:02:01;;;;;;;22.52;4.68;;;2.10;99.90;;;;;;5116094;27;20350;-72
2021/12/20 06:04:27;;;;;;;18.30;3.92;;;2.10;99.90;;;;;;5123475;27;20683;-72
2021/12/20 06:06:52;;;;;;;19.77;4.22;;;2.10;99.90;;;;;;5127601;27;20046;-71
2021/12/20 06:09:18;;;;;;;17.85;3.80;;;2.00;99.90;;;;;;5125886;27;20054;-72
2021/12/20 06:11:43;;;;;;;17.58;3.85;;;2.00;99.90;;;;;;5126479;27;20070;-72
2021/12/20 06:14:09;;;;;;;19.02;4.18;;;2.00;99.90;;;;;;5130722;27;20043;-72
2021/12/20 06:16:35;;;;;;;25.60;5.45;;;2.00;99.90;;;;;;5119909;27;20391;-72
2021/12/20 06:19:01;;;;;;;14.50;3.58;;;1.90;99.90;;;;;;5126391;27;20043;-72
2021/12/20 06:21:26;;;;;;;22.17;4.70;;;1.90;99.90;;;;;;5156282;27;20054;-72
2021/12/20 06:23:52;;;;;;;27.92;5.15;;;1.90;99.90;;;;;;5125865;27;20050;-71
2021/12/20 06:26:18;;;;;;;24.83;4.22;;;1.90;99.90;;;;;;5131260;27;20046;-72
2021/12/20 06:28:43;;;;;;;22.60;4.47;;;1.90;99.90;;;;;;5130250;27;20043;-72
2021/12/20 06:31:09;;;;;;;24.40;4.93;;;1.80;99.90;;;;;;5120893;27;20154;-72
2021/12/20 06:33:35;;;;;;;20.40;4.65;;;1.90;99.90;;;;;;5108227;27;20066;-72
2021/12/20 06:36:01;;;;;;;24.30;5.57;;;1.80;99.90;;;;;;5123378;27;20067;-71
2021/12/20 06:38:26;;;;;;;22.83;5.22;;;1.90;99.90;;;;;;5131683;27;20035;-72
2021/12/20 06:40:55;;;;;;;25.33;6.22;;;1.90;99.90;;;;;;5122502;27;20035;-72
2021/12/20 06:43:20;;;;;;;19.50;4.20;;;1.90;99.90;;;;;;5120624;27;20053;-72
2021/12/20 06:45:47;;;;;;;22.85;5.78;;;1.80;99.90;;;;;;5127069;27;20039;-72
2021/12/20 06:48:13;;;;;;;20.48;4.40;;;1.80;99.90;;;;;;5127464;27;20554;-72
2021/12/20 06:50:38;;;;;;;20.85;3.97;;;1.80;99.90;;;;;;5122323;27;20051;-72
2021/12/20 06:53:07;;;;;;;17.25;4.13;;;1.80;99.90;;;;;;5119031;27;20043;-72
2021/12/20 06:55:34;;;;;;;19.42;3.75;;;1.80;99.90;;;;;;5125237;27;20039;-72
2021/12/20 06:57:59;;;;;;;24.58;4.95;;;1.80;99.90;;;;;;5128688;28;20046;-72
2021/12/20 07:00:26;;;;;;;20.02;4.53;;;1.80;99.90;;;;;;5120659;27;20046;-72
2021/12/20 07:02:53;;;;;;;18.52;4.75;;;1.70;99.90;;;;;;5129743;27;20098;-71
2021/12/20 07:05:18;;;;;;;24.38;5.80;;;1.70;99.90;;;;;;5111957;28;20062;-74
2021/12/20 07:07:44;;;;;;;22.35;4.50;;;1.60;99.90;;;;;;5114357;27;20035;-70
2021/12/20 07:10:10;;;;;;;20.92;5.22;;;1.60;99.90;;;;;;5112499;27;20142;-71
2021/12/20 07:12:37;;;;;;;23.42;5.55;;;1.50;99.90;;;;;;5113398;27;20070;-71
2021/12/20 07:15:05;;;;;;;24.38;5.13;;;1.50;99.90;;;;;;5123671;27;20505;-71
2021/12/20 07:17:31;;;;;;;23.65;5.15;;;1.50;99.90;;;;;;5128698;27;20088;-71
2021/12/20 07:19:58;;;;;;;29.38;6.10;;;1.50;99.90;;;;;;5127759;27;20035;-71
2021/12/20 07:22:24;;;;;;;32.55;7.13;;;1.40;99.90;;;;;;5121931;27;20057;-71
2021/12/20 07:24:50;;;;;;;25.77;5.20;;;1.40;99.90;;;;;;5115610;27;20401;-72
2021/12/20 07:27:18;;;;;;;26.55;5.82;;;1.40;99.90;;;;;;5121866;28;20047;-72
2021/12/20 07:29:44;;;;;;;39.88;7.13;;;1.40;99.90;;;;;;5121875;27;20040;-71
2021/12/20 07:32:11;;;;;;;28.63;6.10;;;1.40;99.90;;;;;;5127699;27;20088;-71
2021/12/20 07:34:37;;;;;;;27.77;6.50;;;1.40;99.90;;;;;;5126973;27;20039;-71
2021/12/20 07:37:04;;;;;;;20.55;4.65;;;1.40;99.90;;;;;;5117157;27;20047;-70
2021/12/20 07:39:29;;;;;;;24.25;5.82;;;1.40;99.90;;;;;;5125109;27;20035;-71
2021/12/20 07:41:55;;;;;;;25.35;4.95;;;1.40;99.90;;;;;;5118615;28;20050;-71
2021/12/20 07:44:21;;;;;;;19.05;5.22;;;1.40;99.90;;;;;;5112539;27;20039;-71
2021/12/20 07:46:47;;;;;;;20.33;4.15;;;1.40;99.90;;;;;;5126175;27;20043;-71
2021/12/20 07:49:13;;;;;;;17.50;4.20;;;1.30;99.90;;;;;;5089295;27;1057278;-71
2021/12/20 07:51:38;;;;;;;15.45;4.32;;;1.30;99.90;;;;;;5120864;27;20062;-71
2021/12/20 07:54:04;;;;;;;19.98;4.10;;;1.30;99.90;;;;;;5111448;27;20691;-71
2021/12/20 07:56:30;;;;;;;17.27;4.15;;;1.20;99.90;;;;;;5123112;27;20036;-71
2021/12/20 07:58:55;;;;;;;16.45;4.13;;;1.20;99.90;;;;;;5119862;27;20474;-71
2021/12/20 08:01:21;;;;;;;10.90;3.40;;;1.20;99.90;;;;;;5122967;27;21099;-71
2021/12/20 08:03:47;;;;;;;23.80;4.40;;;1.20;99.90;;;;;;5108156;27;20055;-71
2021/12/20 08:06:13;;;;;;;14.95;4.30;;;1.20;99.90;;;;;;5127844;27;20039;-71
2021/12/20 08:08:40;;;;;;;18.73;4.70;;;1.20;99.90;;;;;;5126608;27;20836;-71
2021/12/20 08:11:06;;;;;;;14.27;4.10;;;1.20;99.90;;;;;;5115716;27;20143;-71
2021/12/20 08:13:32;;;;;;;19.38;4.57;;;1.20;99.90;;;;;;5120235;27;20032;-71
2021/12/20 08:15:58;;;;;;;15.75;3.95;;;1.20;99.90;;;;;;5127575;27;20039;-71
2021/12/20 08:18:24;;;;;;;18.95;4.38;;;1.20;99.90;;;;;;5115769;27;20372;-71
2021/12/20 08:20:51;;;;;;;13.48;3.95;;;1.10;99.90;;;;;;5114787;27;20043;-71
2021/12/20 08:23:17;;;;;;;22.07;4.60;;;1.10;99.90;;;;;;5125804;27;20100;-71
2021/12/20 08:25:43;;;;;;;15.95;3.85;;;1.10;99.90;;;;;;5126706;27;20330;-72
2021/12/20 08:28:10;;;;;;;17.92;4.25;;;1.10;99.90;;;;;;5123513;27;20119;-71
2021/12/20 08:30:35;;;;;;;21.83;4.65;;;1.20;99.90;;;;;;5109368;27;20044;-71
2021/12/20 08:33:01;;;;;;;21.52;5.50;;;1.20;99.90;;;;;;5137109;27;20051;-73
2021/12/20 08:35:27;;;;;;;35.88;8.02;;;1.20;99.90;;;;;;5121230;27;20027;-74
2021/12/20 08:37:53;;;;;;;15.98;4.88;;;1.30;99.90;;;;;;5123954;27;20171;-73
2021/12/20 08:40:22;;;;;;;10.18;4.05;;;1.30;99.90;;;;;;5118044;27;20553;-72
2021/12/20 08:42:48;;;;;;;15.93;4.00;;;1.30;99.90;;;;;;5113487;27;20490;-72
2021/12/20 08:45:15;;;;;;;21.52;5.70;;;1.40;99.90;;;;;;5108960;27;20043;-72
2021/12/20 08:47:41;;;;;;;26.35;6.20;;;1.40;99.90;;;;;;5118166;27;20394;-71
2021/12/20 08:50:12;;;;;;;24.25;7.20;;;1.40;99.90;;;;;;5118706;27;20043;-73
2021/12/20 08:52:37;;;;;;;24.60;6.70;;;1.50;99.90;;;;;;5123252;27;20039;-72
2021/12/20 08:55:05;;;;;;;20.58;4.90;;;1.50;99.90;;;;;;5127167;27;20440;-71
2021/12/20 08:57:31;;;;;;;;;;;1.60;99.90;;;;;;5108987;27;20051;-71
2021/12/20 08:59:56;;;;;;;16.45;4.97;;;1.70;99.90;;;;;;5117820;27;19949;-72
2021/12/20 09:02:22;;;;;;;20.23;5.38;;;1.80;99.90;;;;;;5126395;27;20103;-71
2021/12/20 09:04:48;;;;;;;22.33;6.93;;;1.80;99.90;;;;;;5128310;27;20418;-73
2021/12/20 09:07:16;;;;;;;25.17;6.30;;;1.80;99.90;;;;;;5128753;27;20436;-73
2021/12/20 09:09:47;;;;;;;16.90;5.00;;;2.00;99.90;;;;;;5126766;27;20122;-73
2021/12/20 09:12:18;;;;;;;19.45;6.05;;;2.00;99.90;;;;;;5148037;27;20535;-72
2021/12/20 09:14:45;;;;;;;16.80;5.07;;;2.00;99.90;;;;;;5120926;27;20031;-73
2021/12/20 09:17:11;;;;;;;16.27;5.18;;;2.10;99.90;;;;;;5127351;27;20143;-71
2021/12/20 09:19:36;;;;;;;22.55;6.90;;;2.10;99.90;;;;;;5123826;27;20600;-71
2021/12/20 09:22:06;;;;;;;23.08;7.22;;;2.20;99.90;;;;;;5123493;27;20414;-71
2021/12/20 09:24:33;;;;;;;21.08;6.80;;;2.30;99.90;;;;;;5120597;27;20039;-71
2021/12/20 09:26:59;;;;;;;25.45;7.53;;;2.30;99.90;;;;;;5147959;27;20055;-70
2021/12/20 09:29:25;;;;;;;23.58;7.43;;;2.40;99.90;;;;;;5123486;27;20793;-69
2021/12/20 09:31:51;;;;;;;24.15;7.25;;;2.40;99.90;;;;;;5125427;27;20143;-69
2021/12/20 09:34:18;;;;;;;30.95;8.43;;;2.50;99.90;;;;;;5108977;28;20118;-70
2021/12/20 09:36:44;;;;;;;23.52;7.75;;;2.50;99.90;;;;;;5151366;27;20046;-69
2021/12/20 09:39:11;;;;;;;27.17;8.38;;;2.60;99.90;;;;;;5115002;27;20043;-70
2021/12/20 09:44:10;;;;;;;28.17;9.82;;;2.90;99.90;;;;;;5127884;27;20043;-70
2021/12/20 09:46:38;;;;;;;26.55;10.30;;;3.00;99.90;;;;;;5125342;28;20050;-71
2021/12/20 09:49:05;;;;;;;30.23;11.73;;;3.10;99.90;;;;;;5127150;27;20141;-71
2021/12/20 09:51:31;;;;;;;28.20;13.02;;;3.20;99.90;;;;;;5120319;28;20062;-71
2021/12/20 09:53:56;;;;;;;32.13;13.65;;;3.30;99.90;;;;;;5128007;27;20099;-71
2021/12/20 09:56:27;;;;;;;37.40;15.00;;;3.30;99.90;;;;;;5132897;27;20514;-71
2021/12/20 09:58:57;;;;;;;33.38;14.23;;;3.40;99.90;;;;;;5113642;28;20164;-71
2021/12/20 10:01:24;;;;;;;33.78;13.02;;;3.40;99.90;;;;;;5122975;28;20035;-72
2021/12/20 10:03:52;;;;;;;29.60;13.35;;;3.50;99.90;;;;;;5119566;28;20058;-71
2021/12/20 10:06:18;;;;;;;24.45;12.35;;;3.50;99.90;;;;;;5112229;28;20059;-74
2021/12/20 10:08:55;;;;;;;33.28;12.30;;;3.60;99.90;;;;;;5123595;27;20461;-73
2021/12/20 10:11:24;;;;;;;31.52;12.38;;;3.60;99.90;;;;;;5109654;27;20044;-72
2021/12/20 10:14:02;;;;;;;31.63;12.05;;;3.70;99.90;;;;;;5127226;27;20051;-73
2021/12/20 10:16:28;;;;;;;;;;;3.70;99.90;;;;;;5128590;27;20040;-72
2021/12/20 10:18:53;;;;;;;26.60;10.43;;;3.70;99.90;;;;;;5126118;28;19928;-78
2021/12/20 10:21:19;;;;;;;28.63;9.10;;;3.80;99.90;;;;;;5125588;28;20050;-75
2021/12/20 10:23:47;;;;;;;33.20;9.93;;;3.80;99.90;;;;;;5113616;28;20067;-75
2021/12/20 10:26:19;;;;;;;23.90;8.73;;;3.90;99.90;;;;;;5134970;27;20134;-73
2021/12/20 10:28:48;;;;;;;27.70;9.43;;;4.00;99.90;;;;;;5118628;28;20036;-73
2021/12/20 10:31:17;;;;;;;32.20;9.95;;;4.00;99.90;;;;;;5106194;28;20054;-73
2021/12/20 10:33:54;;;;;;;27.48;12.00;;;4.00;99.90;;;;;;5116673;28;20500;-72
2021/12/20 10:36:21;;;;;;;30.45;12.98;;;4.10;99.90;;;;;;5140827;27;20065;-73
2021/12/20 10:38:56;;;;;;;32.20;13.60;;;4.10;99.90;;;;;;5125992;27;20039;-71
2021/12/20 10:41:35;;;;;;;35.38;15.63;;;4.20;99.90;;;;;;5116463;27;20036;-72
2021/12/20 10:44:15;;;;;;;42.20;17.45;;;4.20;99.90;;;;;;5110755;28;20055;-70
2021/12/20 10:46:49;;;;;;;40.50;20.13;;;4.30;99.90;;;;;;5123169;27;20478;-70
2021/12/20 10:49:18;;;;;;;41.47;22.08;;;4.30;99.90;;;;;;5113544;27;20076;-70
2021/12/20 10:51:48;;;;;;;45.80;23.15;;;4.40;99.90;;;;;;5113078;27;20059;-73
2021/12/20 10:54:17;;;;;;;51.83;27.88;;;4.50;99.90;;;;;;5115603;27;20670;-72
2021/12/20 10:56:53;;;;;;;45.75;27.30;;;4.40;99.90;;;;;;5129409;27;20047;-71
2021/12/20 10:59:24;;;;;;;39.92;17.92;;;4.50;99.90;;;;;;5125048;27;20047;-71
2021/12/20 11:04:24;;;;;;;29.35;11.43;;;4.50;99.90;;;;;;5129129;27;20108;-73
2021/12/20 11:09:04;;;;;;;27.20;10.50;;;4.60;99.90;;;;;;5122309;27;20111;-73
2021/12/20 11:10:05;;;;;;;29.17;9.98;;;4.60;99.90;;;;;;5125126;27;20051;-74
2021/12/20 11:12:32;;;;;;;26.00;8.13;;;4.70;99.90;;;;;;5131466;27;20402;-74
2021/12/20 11:15:08;;;;;;;28.98;8.05;;;4.70;99.90;;;;;;5125796;27;20040;-74
2021/12/20 11:17:35;;;;;;;28.38;8.95;;;4.80;99.90;;;;;;5129836;27;20061;-73
2021/12/20 11:20:01;;;;;;;23.23;7.72;;;4.80;99.90;;;;;;5120593;27;20058;-76
2021/12/20 11:22:29;;;;;;;24.70;9.07;;;4.80;99.90;;;;;;5125082;27;20061;-74
2021/12/20 11:25:07;;;;;;;29.30;8.68;;;4.80;99.90;;;;;;5130986;27;20039;-76
2021/12/20 11:27:50;;;;;;;24.40;8.25;;;4.90;99.90;;;;;;5122819;27;20051;-73
2021/12/20 11:30:19;;;;;;;26.20;8.68;;;4.90;99.90;;;;;;5116112;27;20059;-74
2021/12/20 11:32:47;;;;;;;30.83;8.80;;;4.90;99.90;;;;;;5120260;27;20101;-75
2021/12/20 11:35:14;;;;;;;22.00;8.85;;;5.00;99.90;;;;;;5118574;27;20039;-75
2021/12/20 11:37:39;;;;;;;26.73;11.27;;;5.00;99.90;;;;;;5126953;27;20047;-75
2021/12/20 11:40:08;;;;;;;28.55;12.02;;;5.00;99.90;;;;;;5114393;27;20043;-75
2021/12/20 11:42:34;;;;;;;28.73;13.40;;;5.10;99.90;;;;;;5128234;27;20039;-77
2021/12/20 11:45:03;;;;;;;34.13;16.63;;;5.10;99.90;;;;;;5129998;27;20106;-75
2021/12/20 11:47:49;;;;;;;34.00;16.45;;;5.10;99.90;;;;;;5127208;27;20182;-76
2021/12/20 11:50:18;;;;;;;30.15;15.60;;;5.10;99.90;;;;;;5128891;27;20068;-75
2021/12/20 11:52:46;;;;;;;29.92;14.43;;;5.20;99.90;;;;;;5128116;27;20058;-73
2021/12/20 11:55:28;;;;;;;31.05;13.82;;;5.20;99.90;;;;;;5108711;27;20043;-75
2021/12/20 11:58:17;;;;;;;30.33;14.52;;;5.30;99.40;;;;;;5130152;27;20068;-72
2021/12/20 12:00:51;;;;;;;28.35;14.70;;;5.30;99.00;;;;;;5125919;27;20046;-72
2021/12/20 12:03:21;;;;;;;29.33;15.35;;;5.30;99.30;;;;;;5128613;27;20118;-72
2021/12/20 12:06:01;;;;;;;26.88;14.75;;;5.30;98.80;;;;;;5128146;27;20126;-72
2021/12/20 12:08:41;;;;;;;23.95;13.23;;;5.30;98.50;;;;;;5129884;27;20482;-72
2021/12/20 12:11:06;;;;;;;22.40;12.02;;;5.30;98.30;;;;;;5126132;27;20048;-71
2021/12/20 12:13:48;;;;;;;23.08;11.25;;;5.30;98.30;;;;;;5109740;27;20051;-71
2021/12/20 12:16:30;;;;;;;22.63;9.93;;;5.40;97.90;;;;;;5122301;27;20051;-72
2021/12/20 12:19:03;;;;;;;20.20;9.13;;;5.40;97.70;;;;;;5111286;27;20048;-72
2021/12/20 12:21:38;;;;;;;15.38;7.70;;;5.40;97.00;;;;;;5117012;27;20039;-72
2021/12/20 12:24:06;;;;;;;19.15;6.80;;;5.40;96.40;;;;;;5129023;27;20051;-72
2021/12/20 12:26:40;;;;;;;15.45;7.28;;;5.40;95.90;;;;;;5117959;27;20051;-72
2021/12/20 12:29:16;;;;;;;15.07;6.43;;;5.40;96.20;;;;;;5113395;27;20043;-72
2021/12/20 12:31:57;;;;;;;12.82;3.90;;;5.50;96.30;;;;;;5128441;27;20092;-72
2021/12/20 12:34:43;;;;;;;12.32;4.03;;;5.50;95.70;;;;;;5122898;27;20040;-72
2021/12/20 12:37:19;;;;;;;23.55;7.35;;;5.50;95.40;;;;;;5108801;28;20043;-72
2021/12/20 12:39:45;;;;;;;24.58;9.35;;;5.50;95.60;;;;;;5120856;27;20074;-72
2021/12/20 12:42:12;;;;;;;17.85;6.70;;;5.50;95.20;;;;;;5129372;27;20087;-72
2021/12/20 12:44:49;;;;;;;16.40;5.80;;;5.60;93.70;;;;;;5125545;27;20050;-72
2021/12/20 12:47:14;;;;;;;14.95;5.28;;;5.70;92.90;;;;;;5125834;27;20293;-73
2021/12/20 12:49:46;;;;;;;15.55;5.88;;;5.70;93.30;;;;;;5124401;27;20051;-72
2021/12/20 12:52:18;;;;;;;16.00;6.03;;;5.70;93.60;;;;;;5106701;27;20051;-73
2021/12/20 12:54:56;;;;;;;15.68;6.53;;;5.70;93.80;;;;;;5114884;27;20070;-72
2021/12/20 12:57:21;;;;;;;12.68;5.45;;;5.70;93.80;;;;;;5116198;27;20040;-72
2021/12/20 12:59:50;;;;;;;16.95;5.22;;;5.70;93.40;;;;;;5121618;27;20042;-72
2021/12/20 13:02:24;;;;;;;14.32;5.13;;;5.70;92.90;;;;;;5123329;27;20042;-71
2021/12/20 13:05:06;;;;;;;16.17;6.45;;;5.70;93.10;;;;;;5119924;27;20047;-72
2021/12/20 13:07:39;;;;;;;14.13;6.25;;;5.70;93.20;;;;;;5107857;27;20075;-70
2021/12/20 13:10:16;;;;;;;12.52;5.28;;;5.70;92.20;;;;;;5117473;27;20035;-71